sensor_id;sensor_type;location;lat;lon;timestamp;temperature;humidity
52709;DHT22;38606;52.986;6.980;2023-03-31T00:00:00;11.10;99.90
52709;DHT22;38606;52.986;6.980;2023-03-31T00:02:26;11.30;99.90
52709;DHT22;38606;52.986;6.980;2023-03-31T00:04:54;11.40;99.90
52709;DHT22;38606;52.986;6.980;2023-03-31T00:07:24;11.10;99.90
52709;DHT22;38606;52.986;6.980;2023-03-31T00:09:50;11.10;99.90
52709;DHT22;38606;52.986;6.980;2023-03-31T00:12:19;11.10;99.90
52709;DHT22;38606;52.986;6.980;2023-03-31T00:14:45;11.20;99.90
52709;DHT22;38606;52.986;6.980;2023-03-31T00:17:11;11.00;99.90
52709;DHT22;38606;52.986;6.980;2023-03-31T00:19:37;10.90;99.90
52709;DHT22;38606;52.986;6.980;2023-03-31T00:22:04;11.10;99.90
52709;DHT22;38606;52.986;6.980;2023-03-31T00:24:31;11.10;99.90
52709;DHT22;38606;52.986;6.980;2023-03-31T00:27:04;11.30;99.90
52709;DHT22;38606;52.986;6.980;2023-03-31T00:29:30;11.00;99.90
52709;DHT22;38606;52.986;6.980;2023-03-31T00:31:58;11.10;99.90
52709;DHT22;38606;52.986;6.980;2023-03-31T00:34:25;10.90;99.90
52709;DHT22;38606;52.986;6.980;2023-03-31T00:36:50;10.80;99.90
52709;DHT22;38606;52.986;6.980;2023-03-31T00:39:21;10.80;99.90
52709;DHT22;38606;52.986;6.980;2023-03-31T00:41:48;11.10;99.90
52709;DHT22;38606;52.986;6.980;2023-03-31T00:44:21;10.80;99.90
52709;DHT22;38606;52.986;6.980;2023-03-31T00:49:43;10.60;99.90
52709;DHT22;38606;52.986;6.980;2023-03-31T00:52:22;10.70;99.90
52709;DHT22;38606;52.986;6.980;2023-03-31T00:54:53;10.90;99.90
52709;DHT22;38606;52.986;6.980;2023-03-31T00:57:21;10.60;99.90
52709;DHT22;38606;52.986;6.980;2023-03-31T00:59:50;10.70;99.90
52709;DHT22;38606;52.986;6.980;2023-03-31T01:02:18;10.70;99.90
52709;DHT22;38606;52.986;6.980;2023-03-31T01:04:52;10.40;99.90
52709;DHT22;38606;52.986;6.980;2023-03-31T01:07:25;10.50;99.90
52709;DHT22;38606;52.986;6.980;2023-03-31T01:09:57;10.60;99.90
52709;DHT22;38606;52.986;6.980;2023-03-31T01:12:25;10.60;99.90
52709;DHT22;38606;52.986;6.980;2023-03-31T01:14:51;10.40;99.90
52709;DHT22;38606;52.986;6.980;2023-03-31T01:17:19;10.20;99.90
52709;DHT22;38606;52.986;6.980;2023-03-31T01:33:36;10.30;99.90
52709;DHT22;38606;52.986;6.980;2023-03-31T01:41:41;10.20;99.90
52709;DHT22;38606;52.986;6.980;2023-03-31T01:44:16;10.20;99.90
52709;DHT22;38606;52.986;6.980;2023-03-31T01:46:53;10.20;99.90
52709;DHT22;38606;52.986;6.980;2023-03-31T01:49:45;10.00;99.90
52709;DHT22;38606;52.986;6.980;2023-03-31T01:52:24;10.00;99.90
52709;DHT22;38606;52.986;6.980;2023-03-31T01:55:02;9.80;99.90
52709;DHT22;38606;52.986;6.980;2023-03-31T01:57:48;9.90;99.90
52709;DHT22;38606;52.986;6.980;2023-03-31T02:00:17;9.90;99.90
52709;DHT22;38606;52.986;6.980;2023-03-31T02:03:00;9.90;99.90
52709;DHT22;38606;52.986;6.980;2023-03-31T02:05:36;9.90;99.90
52709;DHT22;38606;52.986;6.980;2023-03-31T02:08:09;7.70;99.90
52709;DHT22;38606;52.986;6.980;2023-03-31T02:10:38;9.90;99.90
52709;DHT22;38606;52.986;6.980;2023-03-31T02:13:06;9.90;99.90
52709;DHT22;38606;52.986;6.980;2023-03-31T02:15:38;9.90;99.90
52709;DHT22;38606;52.986;6.980;2023-03-31T02:18:10;10.10;99.90
52709;DHT22;38606;52.986;6.980;2023-03-31T02:20:39;10.00;99.90
52709;DHT22;38606;52.986;6.980;2023-03-31T02:23:12;10.00;99.90
52709;DHT22;38606;52.986;6.980;2023-03-31T02:25:44;9.90;99.90
52709;DHT22;38606;52.986;6.980;2023-03-31T02:28:17;10.00;99.90
52709;DHT22;38606;52.986;6.980;2023-03-31T02:31:02;9.80;99.90
52709;DHT22;38606;52.986;6.980;2023-03-31T02:33:30;9.70;99.90
52709;DHT22;38606;52.986;6.980;2023-03-31T02:35:58;10.00;99.90
52709;DHT22;38606;52.986;6.980;2023-03-31T02:38:24;9.90;99.90
52709;DHT22;38606;52.986;6.980;2023-03-31T02:40:50;10.00;99.90
52709;DHT22;38606;52.986;6.980;2023-03-31T02:43:16;9.90;99.90
52709;DHT22;38606;52.986;6.980;2023-03-31T02:48:15;9.80;99.90
52709;DHT22;38606;52.986;6.980;2023-03-31T03:06:51;10.00;99.90
52709;DHT22;38606;52.986;6.980;2023-03-31T03:12:15;10.20;99.90
52709;DHT22;38606;52.986;6.980;2023-03-31T03:14:59;9.80;99.90
52709;DHT22;38606;52.986;6.980;2023-03-31T03:17:33;10.10;99.90
52709;DHT22;38606;52.986;6.980;2023-03-31T03:20:01;10.00;99.90
52709;DHT22;38606;52.986;6.980;2023-03-31T03:22:32;9.90;99.90
52709;DHT22;38606;52.986;6.980;2023-03-31T03:24:58;10.00;99.90
52709;DHT22;38606;52.986;6.980;2023-03-31T03:27:24;10.00;99.90
52709;DHT22;38606;52.986;6.980;2023-03-31T03:29:50;9.90;99.90
52709;DHT22;38606;52.986;6.980;2023-03-31T03:32:15;10.10;99.90
52709;DHT22;38606;52.986;6.980;2023-03-31T03:34:41;10.00;99.90
52709;DHT22;38606;52.986;6.980;2023-03-31T03:37:07;9.90;99.90
52709;DHT22;38606;52.986;6.980;2023-03-31T03:39:33;9.90;99.90
52709;DHT22;38606;52.986;6.980;2023-03-31T03:41:58;10.00;99.90
52709;DHT22;38606;52.986;6.980;2023-03-31T03:44:24;10.10;99.90
52709;DHT22;38606;52.986;6.980;2023-03-31T03:46:50;10.20;99.90
52709;DHT22;38606;52.986;6.980;2023-03-31T03:49:16;10.10;99.90
52709;DHT22;38606;52.986;6.980;2023-03-31T03:51:41;10.00;99.90
52709;DHT22;38606;52.986;6.980;2023-03-31T03:54:07;10.40;99.90
52709;DHT22;38606;52.986;6.980;2023-03-31T03:56:33;9.90;99.90
52709;DHT22;38606;52.986;6.980;2023-03-31T03:58:59;10.00;99.90
52709;DHT22;38606;52.986;6.980;2023-03-31T04:01:24;9.90;99.90
52709;DHT22;38606;52.986;6.980;2023-03-31T04:03:50;10.00;99.90
52709;DHT22;38606;52.986;6.980;2023-03-31T04:06:16;10.20;99.90
52709;DHT22;38606;52.986;6.980;2023-03-31T04:08:42;10.10;99.90
52709;DHT22;38606;52.986;6.980;2023-03-31T04:11:13;10.20;99.90
52709;DHT22;38606;52.986;6.980;2023-03-31T04:13:39;10.20;99.90
52709;DHT22;38606;52.986;6.980;2023-03-31T04:16:06;10.10;99.90
52709;DHT22;38606;52.986;6.980;2023-03-31T04:18:32;10.30;99.90
52709;DHT22;38606;52.986;6.980;2023-03-31T04:20:58;10.40;99.90
52709;DHT22;38606;52.986;6.980;2023-03-31T04:23:34;10.30;99.90
52709;DHT22;38606;52.986;6.980;2023-03-31T04:26:10;10.20;99.90
52709;DHT22;38606;52.986;6.980;2023-03-31T04:28:39;10.00;99.90
52709;DHT22;38606;52.986;6.980;2023-03-31T04:31:10;10.40;99.90
52709;DHT22;38606;52.986;6.980;2023-03-31T04:33:41;10.30;99.90
52709;DHT22;38606;52.986;6.980;2023-03-31T04:36:10;10.40;99.90
52709;DHT22;38606;52.986;6.980;2023-03-31T04:38:43;10.20;99.90
52709;DHT22;38606;52.986;6.980;2023-03-31T04:41:12;10.20;99.90
52709;DHT22;38606;52.986;6.980;2023-03-31T04:43:37;10.10;99.90
52709;DHT22;38606;52.986;6.980;2023-03-31T04:46:03;10.20;99.90
52709;DHT22;38606;52.986;6.980;2023-03-31T04:48:29;10.20;99.90
52709;DHT22;38606;52.986;6.980;2023-03-31T04:50:55;10.20;99.90
52709;DHT22;38606;52.986;6.980;2023-03-31T04:53:21;10.10;99.90
52709;DHT22;38606;52.986;6.980;2023-03-31T04:55:48;10.10;99.90
52709;DHT22;38606;52.986;6.980;2023-03-31T04:58:14;10.00;99.90
52709;DHT22;38606;52.986;6.980;2023-03-31T05:00:40;10.30;99.90
52709;DHT22;38606;52.986;6.980;2023-03-31T05:03:06;10.20;99.90
52709;DHT22;38606;52.986;6.980;2023-03-31T05:05:31;10.20;99.90
52709;DHT22;38606;52.986;6.980;2023-03-31T05:07:57;10.10;99.90
52709;DHT22;38606;52.986;6.980;2023-03-31T05:10:23;10.20;99.90
52709;DHT22;38606;52.986;6.980;2023-03-31T05:12:49;10.20;99.90
52709;DHT22;38606;52.986;6.980;2023-03-31T05:15:15;10.30;99.90
52709;DHT22;38606;52.986;6.980;2023-03-31T05:17:41;10.10;99.90
52709;DHT22;38606;52.986;6.980;2023-03-31T05:20:08;10.30;99.90
52709;DHT22;38606;52.986;6.980;2023-03-31T05:22:36;10.00;99.90
52709;DHT22;38606;52.986;6.980;2023-03-31T05:25:03;10.00;99.90
52709;DHT22;38606;52.986;6.980;2023-03-31T05:27:29;10.10;99.90
52709;DHT22;38606;52.986;6.980;2023-03-31T05:29:55;10.30;99.90
52709;DHT22;38606;52.986;6.980;2023-03-31T05:32:21;10.30;99.90
52709;DHT22;38606;52.986;6.980;2023-03-31T05:34:46;10.20;99.90
52709;DHT22;38606;52.986;6.980;2023-03-31T05:37:14;10.20;99.90
52709;DHT22;38606;52.986;6.980;2023-03-31T05:39:39;10.80;99.90
52709;DHT22;38606;52.986;6.980;2023-03-31T05:42:05;10.10;99.90
52709;DHT22;38606;52.986;6.980;2023-03-31T05:44:32;10.20;99.90
52709;DHT22;38606;52.986;6.980;2023-03-31T05:46:57;10.20;99.90
52709;DHT22;38606;52.986;6.980;2023-03-31T05:49:23;10.20;99.90
52709;DHT22;38606;52.986;6.980;2023-03-31T05:51:49;10.20;99.90
52709;DHT22;38606;52.986;6.980;2023-03-31T05:54:16;10.10;99.90
52709;DHT22;38606;52.986;6.980;2023-03-31T05:56:41;10.20;99.90
52709;DHT22;38606;52.986;6.980;2023-03-31T05:59:07;10.00;99.90
52709;DHT22;38606;52.986;6.980;2023-03-31T06:01:33;10.30;99.90
52709;DHT22;38606;52.986;6.980;2023-03-31T06:03:59;10.20;99.90
52709;DHT22;38606;52.986;6.980;2023-03-31T06:06:24;10.10;99.90
52709;DHT22;38606;52.986;6.980;2023-03-31T06:08:51;10.20;99.90
52709;DHT22;38606;52.986;6.980;2023-03-31T06:11:21;10.20;99.90
52709;DHT22;38606;52.986;6.980;2023-03-31T06:13:47;10.10;99.90
52709;DHT22;38606;52.986;6.980;2023-03-31T06:16:14;10.20;99.90
52709;DHT22;38606;52.986;6.980;2023-03-31T06:18:41;10.30;99.90
52709;DHT22;38606;52.986;6.980;2023-03-31T06:21:11;10.40;99.90
52709;DHT22;38606;52.986;6.980;2023-03-31T06:23:38;10.50;99.90
52709;DHT22;38606;52.986;6.980;2023-03-31T06:26:07;10.20;99.90
52709;DHT22;38606;52.986;6.980;2023-03-31T06:28:34;10.20;99.90
52709;DHT22;38606;52.986;6.980;2023-03-31T06:31:05;10.20;99.90
52709;DHT22;38606;52.986;6.980;2023-03-31T06:33:32;10.40;99.90
52709;DHT22;38606;52.986;6.980;2023-03-31T06:35:58;10.20;99.90
52709;DHT22;38606;52.986;6.980;2023-03-31T06:38:26;10.30;99.90
52709;DHT22;38606;52.986;6.980;2023-03-31T06:40:53;10.20;99.90
52709;DHT22;38606;52.986;6.980;2023-03-31T06:43:19;10.40;99.90
52709;DHT22;38606;52.986;6.980;2023-03-31T06:45:45;10.30;99.90
52709;DHT22;38606;52.986;6.980;2023-03-31T06:48:11;10.10;99.90
52709;DHT22;38606;52.986;6.980;2023-03-31T06:50:38;10.40;99.90
52709;DHT22;38606;52.986;6.980;2023-03-31T06:53:04;10.40;99.90
52709;DHT22;38606;52.986;6.980;2023-03-31T06:55:30;10.20;99.90
52709;DHT22;38606;52.986;6.980;2023-03-31T06:57:56;10.30;99.90
52709;DHT22;38606;52.986;6.980;2023-03-31T07:00:22;10.20;99.90
52709;DHT22;38606;52.986;6.980;2023-03-31T07:02:50;10.40;99.90
52709;DHT22;38606;52.986;6.980;2023-03-31T07:05:16;10.70;99.90
52709;DHT22;38606;52.986;6.980;2023-03-31T07:07:43;10.40;99.90
52709;DHT22;38606;52.986;6.980;2023-03-31T07:10:08;10.30;99.90
52709;DHT22;38606;52.986;6.980;2023-03-31T07:12:34;10.50;99.90
52709;DHT22;38606;52.986;6.980;2023-03-31T07:15:00;10.50;99.90
52709;DHT22;38606;52.986;6.980;2023-03-31T07:17:26;10.40;99.90
52709;DHT22;38606;52.986;6.980;2023-03-31T07:19:51;10.50;99.90
52709;DHT22;38606;52.986;6.980;2023-03-31T07:22:17;10.50;99.90
52709;DHT22;38606;52.986;6.980;2023-03-31T07:24:43;10.30;99.90
52709;DHT22;38606;52.986;6.980;2023-03-31T07:27:08;10.30;99.90
52709;DHT22;38606;52.986;6.980;2023-03-31T07:29:34;10.40;99.90
52709;DHT22;38606;52.986;6.980;2023-03-31T07:32:00;10.40;99.90
52709;DHT22;38606;52.986;6.980;2023-03-31T07:34:26;10.40;99.90
52709;DHT22;38606;52.986;6.980;2023-03-31T07:36:54;10.50;99.90
52709;DHT22;38606;52.986;6.980;2023-03-31T07:39:20;10.50;99.90
52709;DHT22;38606;52.986;6.980;2023-03-31T07:41:46;10.50;99.90
52709;DHT22;38606;52.986;6.980;2023-03-31T07:44:12;10.30;99.90
52709;DHT22;38606;52.986;6.980;2023-03-31T07:46:38;10.30;99.90
52709;DHT22;38606;52.986;6.980;2023-03-31T07:49:04;10.50;99.90
52709;DHT22;38606;52.986;6.980;2023-03-31T07:51:31;10.30;99.90
52709;DHT22;38606;52.986;6.980;2023-03-31T07:53:58;10.50;99.90
52709;DHT22;38606;52.986;6.980;2023-03-31T07:56:24;10.40;99.90
52709;DHT22;38606;52.986;6.980;2023-03-31T07:58:50;10.50;99.90
52709;DHT22;38606;52.986;6.980;2023-03-31T08:01:19;10.50;99.90
52709;DHT22;38606;52.986;6.980;2023-03-31T08:03:46;10.50;99.90
52709;DHT22;38606;52.986;6.980;2023-03-31T08:06:21;10.40;99.90
52709;DHT22;38606;52.986;6.980;2023-03-31T08:08:48;10.60;99.90
52709;DHT22;38606;52.986;6.980;2023-03-31T08:11:15;10.30;99.90
52709;DHT22;38606;52.986;6.980;2023-03-31T08:13:41;10.80;99.90
52709;DHT22;38606;52.986;6.980;2023-03-31T08:16:07;11.50;99.90
52709;DHT22;38606;52.986;6.980;2023-03-31T08:18:33;10.60;99.90
52709;DHT22;38606;52.986;6.980;2023-03-31T08:20:58;10.70;99.90
52709;DHT22;38606;52.986;6.980;2023-03-31T08:23:24;10.70;99.90
52709;DHT22;38606;52.986;6.980;2023-03-31T08:25:51;10.80;99.90
52709;DHT22;38606;52.986;6.980;2023-03-31T08:28:16;10.80;99.90
52709;DHT22;38606;52.986;6.980;2023-03-31T08:30:42;10.80;99.90
52709;DHT22;38606;52.986;6.980;2023-03-31T08:33:08;10.90;99.90
52709;DHT22;38606;52.986;6.980;2023-03-31T08:35:37;11.00;99.90
52709;DHT22;38606;52.986;6.980;2023-03-31T08:38:03;10.90;99.90
52709;DHT22;38606;52.986;6.980;2023-03-31T08:40:30;10.90;99.90
52709;DHT22;38606;52.986;6.980;2023-03-31T08:43:07;11.20;99.90
52709;DHT22;38606;52.986;6.980;2023-03-31T08:45:38;11.10;99.90
52709;DHT22;38606;52.986;6.980;2023-03-31T08:48:28;11.10;99.90
52709;DHT22;38606;52.986;6.980;2023-03-31T08:51:05;11.30;99.90
52709;DHT22;38606;52.986;6.980;2023-03-31T08:53:36;11.20;99.90
52709;DHT22;38606;52.986;6.980;2023-03-31T08:56:06;11.10;99.90
52709;DHT22;38606;52.986;6.980;2023-03-31T09:01:32;11.30;99.90
52709;DHT22;38606;52.986;6.980;2023-03-31T09:06:40;11.20;99.90
52709;DHT22;38606;52.986;6.980;2023-03-31T09:09:17;11.20;99.90
52709;DHT22;38606;52.986;6.980;2023-03-31T09:11:52;12.20;99.90
52709;DHT22;38606;52.986;6.980;2023-03-31T09:14:28;11.20;99.90
52709;DHT22;38606;52.986;6.980;2023-03-31T09:19:42;11.40;99.90
52709;DHT22;38606;52.986;6.980;2023-03-31T09:22:23;11.30;99.90
52709;DHT22;38606;52.986;6.980;2023-03-31T09:25:04;11.20;99.90
52709;DHT22;38606;52.986;6.980;2023-03-31T09:27:34;11.50;99.90
52709;DHT22;38606;52.986;6.980;2023-03-31T09:30:26;11.40;99.90
52709;DHT22;38606;52.986;6.980;2023-03-31T09:33:15;11.20;99.90
52709;DHT22;38606;52.986;6.980;2023-03-31T09:35:40;11.30;99.90
52709;DHT22;38606;52.986;6.980;2023-03-31T09:38:05;11.40;99.90
52709;DHT22;38606;52.986;6.980;2023-03-31T09:40:32;11.30;99.90
52709;DHT22;38606;52.986;6.980;2023-03-31T09:43:22;11.40;99.90
52709;DHT22;38606;52.986;6.980;2023-03-31T09:45:46;11.70;99.90
52709;DHT22;38606;52.986;6.980;2023-03-31T09:48:22;11.60;99.90
52709;DHT22;38606;52.986;6.980;2023-03-31T09:50:59;11.60;99.90
52709;DHT22;38606;52.986;6.980;2023-03-31T09:53:51;11.60;99.90
52709;DHT22;38606;52.986;6.980;2023-03-31T09:59:14;12.00;99.90
52709;DHT22;38606;52.986;6.980;2023-03-31T10:01:41;11.70;99.90
52709;DHT22;38606;52.986;6.980;2023-03-31T10:04:22;11.80;99.90
52709;DHT22;38606;52.986;6.980;2023-03-31T10:06:49;11.70;99.90
52709;DHT22;38606;52.986;6.980;2023-03-31T10:09:18;11.60;99.90
52709;DHT22;38606;52.986;6.980;2023-03-31T10:11:58;11.80;99.90
52709;DHT22;38606;52.986;6.980;2023-03-31T10:14:48;11.80;99.90
52709;DHT22;38606;52.986;6.980;2023-03-31T10:17:16;11.90;99.90
52709;DHT22;38606;52.986;6.980;2023-03-31T10:19:55;11.70;99.90
52709;DHT22;38606;52.986;6.980;2023-03-31T10:24:51;11.80;99.90
52709;DHT22;38606;52.986;6.980;2023-03-31T10:27:25;11.80;99.90
52709;DHT22;38606;52.986;6.980;2023-03-31T10:29:54;11.90;99.90
52709;DHT22;38606;52.986;6.980;2023-03-31T10:32:32;11.90;99.90
52709;DHT22;38606;52.986;6.980;2023-03-31T10:35:07;11.90;99.90
52709;DHT22;38606;52.986;6.980;2023-03-31T10:37:39;12.00;99.90
52709;DHT22;38606;52.986;6.980;2023-03-31T10:40:13;12.00;99.90
52709;DHT22;38606;52.986;6.980;2023-03-31T10:42:41;12.00;99.90
52709;DHT22;38606;52.986;6.980;2023-03-31T10:47:48;12.00;99.90
52709;DHT22;38606;52.986;6.980;2023-03-31T10:50:15;12.10;99.90
52709;DHT22;38606;52.986;6.980;2023-03-31T10:52:44;12.30;99.90
52709;DHT22;38606;52.986;6.980;2023-03-31T10:55:22;12.30;99.90
52709;DHT22;38606;52.986;6.980;2023-03-31T10:57:55;12.30;99.90
52709;DHT22;38606;52.986;6.980;2023-03-31T11:00:43;12.40;99.90
52709;DHT22;38606;52.986;6.980;2023-03-31T11:03:20;12.70;99.90
52709;DHT22;38606;52.986;6.980;2023-03-31T11:06:08;12.60;99.90
52709;DHT22;38606;52.986;6.980;2023-03-31T11:12:12;12.80;99.90
52709;DHT22;38606;52.986;6.980;2023-03-31T11:19:58;13.00;99.90
52709;DHT22;38606;52.986;6.980;2023-03-31T11:22:54;13.10;99.90
52709;DHT22;38606;52.986;6.980;2023-03-31T11:25:44;13.10;99.90
52709;DHT22;38606;52.986;6.980;2023-03-31T11:28:34;13.30;99.90
52709;DHT22;38606;52.986;6.980;2023-03-31T11:34:44;13.20;99.90
52709;DHT22;38606;52.986;6.980;2023-03-31T11:37:29;13.30;99.90
52709;DHT22;38606;52.986;6.980;2023-03-31T11:42:55;13.30;99.90
52709;DHT22;38606;52.986;6.980;2023-03-31T11:45:29;13.00;99.90
52709;DHT22;38606;52.986;6.980;2023-03-31T11:48:01;13.10;99.90
52709;DHT22;38606;52.986;6.980;2023-03-31T11:50:32;13.10;99.90
52709;DHT22;38606;52.986;6.980;2023-03-31T11:53:14;11.40;99.90
52709;DHT22;38606;52.986;6.980;2023-03-31T11:55:41;13.30;99.90
52709;DHT22;38606;52.986;6.980;2023-03-31T11:58:20;13.20;99.90
52709;DHT22;38606;52.986;6.980;2023-03-31T12:06:01;13.50;99.90
52709;DHT22;38606;52.986;6.980;2023-03-31T12:08:40;13.70;99.90
52709;DHT22;38606;52.986;6.980;2023-03-31T12:11:14;13.80;99.90
52709;DHT22;38606;52.986;6.980;2023-03-31T12:13:50;13.80;99.90
52709;DHT22;38606;52.986;6.980;2023-03-31T12:16:41;13.80;99.90
52709;DHT22;38606;52.986;6.980;2023-03-31T12:19:26;13.90;99.90
52709;DHT22;38606;52.986;6.980;2023-03-31T12:22:21;14.00;99.90
52709;DHT22;38606;52.986;6.980;2023-03-31T12:24:48;13.60;99.90
52709;DHT22;38606;52.986;6.980;2023-03-31T12:27:29;13.90;99.90
52709;DHT22;38606;52.986;6.980;2023-03-31T12:30:00;14.00;99.90
52709;DHT22;38606;52.986;6.980;2023-03-31T12:32:31;12.80;99.90
52709;DHT22;38606;52.986;6.980;2023-03-31T12:35:03;13.90;99.90
52709;DHT22;38606;52.986;6.980;2023-03-31T12:37:46;14.10;99.90
52709;DHT22;38606;52.986;6.980;2023-03-31T12:49:38;14.20;99.90
52709;DHT22;38606;52.986;6.980;2023-03-31T12:57:35;13.90;99.90
52709;DHT22;38606;52.986;6.980;2023-03-31T13:02:42;14.10;99.90
52709;DHT22;38606;52.986;6.980;2023-03-31T13:08:03;14.20;99.90
52709;DHT22;38606;52.986;6.980;2023-03-31T13:10:30;14.20;99.90
52709;DHT22;38606;52.986;6.980;2023-03-31T13:13:05;14.40;99.90
52709;DHT22;38606;52.986;6.980;2023-03-31T13:15:36;14.60;99.90
52709;DHT22;38606;52.986;6.980;2023-03-31T13:18:06;14.70;99.90
52709;DHT22;38606;52.986;6.980;2023-03-31T13:20:42;14.70;99.90
52709;DHT22;38606;52.986;6.980;2023-03-31T13:25:46;14.80;99.90
52709;DHT22;38606;52.986;6.980;2023-03-31T13:39:23;14.30;99.90
52709;DHT22;38606;52.986;6.980;2023-03-31T14:06:54;14.20;99.90
52709;DHT22;38606;52.986;6.980;2023-03-31T14:09:35;14.40;99.90
52709;DHT22;38606;52.986;6.980;2023-03-31T14:12:28;14.40;99.90
52709;DHT22;38606;52.986;6.980;2023-03-31T14:14:54;14.20;99.90
52709;DHT22;38606;52.986;6.980;2023-03-31T14:17:27;14.10;99.90
52709;DHT22;38606;52.986;6.980;2023-03-31T14:39:50;14.00;99.90
52709;DHT22;38606;52.986;6.980;2023-03-31T14:42:28;13.80;99.90
52709;DHT22;38606;52.986;6.980;2023-03-31T14:45:01;14.00;99.90
52709;DHT22;38606;52.986;6.980;2023-03-31T14:47:28;13.70;99.90
52709;DHT22;38606;52.986;6.980;2023-03-31T14:50:05;13.70;99.90
52709;DHT22;38606;52.986;6.980;2023-03-31T14:52:34;13.50;99.90
52709;DHT22;38606;52.986;6.980;2023-03-31T14:55:00;13.50;99.90
52709;DHT22;38606;52.986;6.980;2023-03-31T14:57:35;13.40;99.90
52709;DHT22;38606;52.986;6.980;2023-03-31T15:00:07;13.60;99.90
52709;DHT22;38606;52.986;6.980;2023-03-31T15:02:36;13.40;99.90
52709;DHT22;38606;52.986;6.980;2023-03-31T15:05:04;13.20;99.90
52709;DHT22;38606;52.986;6.980;2023-03-31T15:07:32;13.20;99.90
52709;DHT22;38606;52.986;6.980;2023-03-31T15:09:59;13.10;99.90
52709;DHT22;38606;52.986;6.980;2023-03-31T15:12:27;12.90;99.90
52709;DHT22;38606;52.986;6.980;2023-03-31T15:15:02;13.00;99.90
52709;DHT22;38606;52.986;6.980;2023-03-31T15:17:30;13.00;99.90
52709;DHT22;38606;52.986;6.980;2023-03-31T15:19:59;13.00;99.90
52709;DHT22;38606;52.986;6.980;2023-03-31T15:22:28;13.20;99.90
52709;DHT22;38606;52.986;6.980;2023-03-31T15:24:55;12.90;99.90
52709;DHT22;38606;52.986;6.980;2023-03-31T15:29:49;12.70;99.90
52709;DHT22;38606;52.986;6.980;2023-03-31T15:32:24;13.00;99.90
52709;DHT22;38606;52.986;6.980;2023-03-31T15:34:51;13.00;99.90
52709;DHT22;38606;52.986;6.980;2023-03-31T15:37:37;13.00;99.90
52709;DHT22;38606;52.986;6.980;2023-03-31T15:42:51;13.00;99.90
52709;DHT22;38606;52.986;6.980;2023-03-31T15:47:56;13.10;99.90
52709;DHT22;38606;52.986;6.980;2023-03-31T15:50:28;13.10;99.90
52709;DHT22;38606;52.986;6.980;2023-03-31T15:52:55;13.30;99.90
52709;DHT22;38606;52.986;6.980;2023-03-31T15:55:28;13.00;99.90
52709;DHT22;38606;52.986;6.980;2023-03-31T15:57:57;13.50;99.90
52709;DHT22;38606;52.986;6.980;2023-03-31T16:03:10;13.10;99.90
52709;DHT22;38606;52.986;6.980;2023-03-31T16:05:54;13.30;99.90
52709;DHT22;38606;52.986;6.980;2023-03-31T16:08:30;13.10;99.90
52709;DHT22;38606;52.986;6.980;2023-03-31T16:11:07;13.30;99.90
52709;DHT22;38606;52.986;6.980;2023-03-31T16:13:37;13.20;99.90
52709;DHT22;38606;52.986;6.980;2023-03-31T16:16:08;13.10;99.90
52709;DHT22;38606;52.986;6.980;2023-03-31T16:18:41;12.90;99.90
52709;DHT22;38606;52.986;6.980;2023-03-31T16:21:08;13.20;99.90
52709;DHT22;38606;52.986;6.980;2023-03-31T16:23:37;13.30;99.90
52709;DHT22;38606;52.986;6.980;2023-03-31T16:26:05;13.30;99.90
52709;DHT22;38606;52.986;6.980;2023-03-31T16:28:36;13.10;99.90
52709;DHT22;38606;52.986;6.980;2023-03-31T16:31:03;13.00;99.90
52709;DHT22;38606;52.986;6.980;2023-03-31T16:33:31;13.10;99.90
52709;DHT22;38606;52.986;6.980;2023-03-31T16:36:16;13.30;99.90
52709;DHT22;38606;52.986;6.980;2023-03-31T16:38:42;13.20;99.90
52709;DHT22;38606;52.986;6.980;2023-03-31T16:41:07;13.00;99.90
52709;DHT22;38606;52.986;6.980;2023-03-31T16:43:33;13.00;99.90
52709;DHT22;38606;52.986;6.980;2023-03-31T16:46:01;13.20;99.90
52709;DHT22;38606;52.986;6.980;2023-03-31T16:48:29;13.10;99.90
52709;DHT22;38606;52.986;6.980;2023-03-31T16:50:58;12.80;99.90
52709;DHT22;38606;52.986;6.980;2023-03-31T16:53:32;13.10;99.90
52709;DHT22;38606;52.986;6.980;2023-03-31T16:55:59;13.00;99.90
52709;DHT22;38606;52.986;6.980;2023-03-31T16:58:26;12.80;99.90
52709;DHT22;38606;52.986;6.980;2023-03-31T17:00:55;12.70;99.90
52709;DHT22;38606;52.986;6.980;2023-03-31T17:03:21;12.90;99.90
52709;DHT22;38606;52.986;6.980;2023-03-31T17:05:49;12.80;99.90
52709;DHT22;38606;52.986;6.980;2023-03-31T17:08:19;12.70;99.90
52709;DHT22;38606;52.986;6.980;2023-03-31T17:10:51;12.50;99.90
52709;DHT22;38606;52.986;6.980;2023-03-31T17:13:17;12.30;99.90
52709;DHT22;38606;52.986;6.980;2023-03-31T17:15:43;12.60;99.90
52709;DHT22;38606;52.986;6.980;2023-03-31T17:18:08;12.50;99.90
52709;DHT22;38606;52.986;6.980;2023-03-31T17:20:34;12.20;99.90
52709;DHT22;38606;52.986;6.980;2023-03-31T17:23:00;12.10;99.90
52709;DHT22;38606;52.986;6.980;2023-03-31T17:25:26;12.20;99.90
52709;DHT22;38606;52.986;6.980;2023-03-31T17:27:51;12.40;99.90
52709;DHT22;38606;52.986;6.980;2023-03-31T17:30:17;12.30;99.90
52709;DHT22;38606;52.986;6.980;2023-03-31T17:32:43;12.30;99.90
52709;DHT22;38606;52.986;6.980;2023-03-31T17:35:09;12.00;99.90
52709;DHT22;38606;52.986;6.980;2023-03-31T17:37:35;12.00;99.90
52709;DHT22;38606;52.986;6.980;2023-03-31T17:40:02;11.90;99.90
52709;DHT22;38606;52.986;6.980;2023-03-31T17:42:29;12.00;99.90
52709;DHT22;38606;52.986;6.980;2023-03-31T17:44:55;12.00;99.90
52709;DHT22;38606;52.986;6.980;2023-03-31T17:47:23;11.60;99.90
52709;DHT22;38606;52.986;6.980;2023-03-31T17:49:49;12.00;99.90
52709;DHT22;38606;52.986;6.980;2023-03-31T17:52:15;11.90;99.90
52709;DHT22;38606;52.986;6.980;2023-03-31T17:54:40;11.70;99.90
52709;DHT22;38606;52.986;6.980;2023-03-31T17:57:07;11.70;99.90
52709;DHT22;38606;52.986;6.980;2023-03-31T17:59:33;11.80;99.90
52709;DHT22;38606;52.986;6.980;2023-03-31T18:01:58;10.50;99.90
52709;DHT22;38606;52.986;6.980;2023-03-31T18:04:25;11.60;99.90
52709;DHT22;38606;52.986;6.980;2023-03-31T18:06:51;11.60;99.90
52709;DHT22;38606;52.986;6.980;2023-03-31T18:09:17;11.50;99.90
52709;DHT22;38606;52.986;6.980;2023-03-31T18:11:43;11.80;99.90
52709;DHT22;38606;52.986;6.980;2023-03-31T18:14:10;10.70;99.90
52709;DHT22;38606;52.986;6.980;2023-03-31T18:16:35;11.50;99.90
52709;DHT22;38606;52.986;6.980;2023-03-31T18:19:01;11.50;99.90
52709;DHT22;38606;52.986;6.980;2023-03-31T18:21:27;11.70;99.90
52709;DHT22;38606;52.986;6.980;2023-03-31T18:23:54;11.80;99.90
52709;DHT22;38606;52.986;6.980;2023-03-31T18:26:22;11.70;99.90
52709;DHT22;38606;52.986;6.980;2023-03-31T18:28:48;11.40;99.90
52709;DHT22;38606;52.986;6.980;2023-03-31T18:31:15;11.30;99.90
52709;DHT22;38606;52.986;6.980;2023-03-31T18:33:41;11.70;99.90
52709;DHT22;38606;52.986;6.980;2023-03-31T18:36:12;11.60;99.90
52709;DHT22;38606;52.986;6.980;2023-03-31T18:38:39;11.50;99.90